Time;durP1;ratioP1;P1;durP2;ratioP2;P2;SDS_P1;SDS_P2;PMS_P1;PMS_P2;Temp;Humidity;BMP_temperature;BMP_pressure;BME280_temperature;BME280_humidity;BME280_pressure;Samples;Min_cycle;Max_cycle;Signal;HPM_P1;HPM_P2
2024/03/24 00:01:36;;;;;;;17.40;10.90;;;;;;;10.30;67.66;98102.10;107205;1256;61232;-39
2024/03/24 00:04:04;;;;;;;14.30;11.10;;;;;;;10.28;67.63;98098.00;107204;1256;73358;-38
2024/03/24 00:06:32;;;;;;;19.30;11.70;;;;;;;10.27;67.61;98099.15;107206;1256;68037;-38
2024/03/24 00:08:59;;;;;;;14.80;10.80;;;;;;;10.26;67.58;98099.31;107182;1257;72733;-38
2024/03/24 00:11:26;;;;;;;14.90;10.60;;;;;;;10.29;67.35;98098.45;107185;1256;61507;-38
2024/03/24 00:13:54;;;;;;;15.70;10.70;;;;;;;10.33;67.26;98102.64;107211;1256;61093;-38
2024/03/24 00:16:21;;;;;;;14.00;11.00;;;;;;;10.32;67.17;98100.95;107095;1257;74681;-39
2024/03/24 00:18:48;;;;;;;16.50;11.10;;;;;;;10.29;67.29;98098.54;107101;1256;66436;-38
2024/03/24 00:21:16;;;;;;;14.10;11.10;;;;;;;10.27;67.17;98100.07;107133;1256;73047;-38
2024/03/24 00:23:43;;;;;;;14.70;10.60;;;;;;;10.25;67.32;98098.70;107159;1257;61264;-39
2024/03/24 00:26:10;;;;;;;14.30;10.60;;;;;;;10.21;67.39;98095.29;107203;1256;61123;-38
2024/03/24 00:28:38;;;;;;;13.60;10.70;;;;;;;10.17;67.50;98087.01;107235;1256;74942;-38
2024/03/24 00:31:05;;;;;;;15.60;10.30;;;;;;;10.14;67.49;98088.07;107200;1260;67591;-38
2024/03/24 00:33:33;;;;;;;15.40;10.30;;;;;;;10.17;67.43;98088.24;107209;1256;72646;-38
2024/03/24 00:36:00;;;;;;;14.70;10.40;;;;;;;10.21;67.24;98086.08;107207;1256;61247;-38
2024/03/24 00:38:28;;;;;;;14.90;10.40;;;;;;;10.20;67.16;98083.98;107131;1256;61323;-39
2024/03/24 00:40:56;;;;;;;13.70;10.60;;;;;;;10.17;67.23;98077.02;107146;1256;74629;-39
2024/03/24 00:43:23;;;;;;;15.90;11.10;;;;;;;10.09;67.18;98061.86;107195;1256;67570;-38
2024/03/24 00:45:50;;;;;;;16.70;10.90;;;;;;;10.14;67.19;98066.48;107240;1256;72688;-39
2024/03/24 00:48:18;;;;;;;16.20;11.90;;;;;;;10.11;67.27;98061.14;107220;1257;60262;-39
2024/03/24 00:50:45;;;;;;;16.80;11.10;;;;;;;10.07;67.26;98060.44;107216;1256;61176;-39
2024/03/24 00:53:13;;;;;;;13.80;9.90;;;;;;;10.06;67.40;98054.57;107201;1260;74774;-39
2024/03/24 00:55:40;;;;;;;15.70;11.10;;;;;;;10.12;67.37;98045.13;107225;1257;66759;-39
2024/03/24 00:58:08;;;;;;;14.00;10.50;;;;;;;10.16;67.19;98044.52;107348;1256;71500;-39
2024/03/24 01:00:35;;;;;;;14.00;11.00;;;;;;;10.14;67.17;98037.77;107308;1257;61125;-39
2024/03/24 01:03:03;;;;;;;16.20;11.60;;;;;;;10.12;67.22;98036.77;107339;1257;60470;-39
2024/03/24 01:05:30;;;;;;;15.20;11.30;;;;;;;10.10;67.41;98028.11;107335;1256;74679;-39
2024/03/24 01:07:58;;;;;;;14.80;10.90;;;;;;;10.09;67.40;98041.95;107221;1256;67606;-39
2024/03/24 01:10:26;;;;;;;15.30;11.20;;;;;;;10.07;67.50;98032.52;107232;1257;72678;-39
2024/03/24 01:12:53;;;;;;;15.70;11.90;;;;;;;10.03;67.49;98039.09;107168;1256;61132;-39
2024/03/24 01:15:20;;;;;;;15.80;11.20;;;;;;;9.99;67.59;98041.42;107231;1256;61107;-39
2024/03/24 01:17:48;;;;;;;15.80;10.80;;;;;;;10.01;67.65;98034.92;107227;1256;73400;-39
2024/03/24 01:20:15;;;;;;;15.70;11.60;;;;;;;10.06;67.65;98039.17;107221;1256;66611;-39
2024/03/24 01:22:45;;;;;;;17.10;11.10;;;;;;;10.04;67.88;98036.77;107102;1255;70787;-39
2024/03/24 01:25:12;;;;;;;16.30;12.40;;;;;;;10.02;68.02;98039.25;107137;1256;60456;-39
2024/03/24 01:27:40;;;;;;;19.90;12.80;;;;;;;9.99;68.26;98052.70;107088;1256;61343;-39
2024/03/24 01:30:09;;;;;;;17.10;12.20;;;;;;;9.94;68.50;98043.04;107237;1256;74646;-39
2024/03/24 01:32:37;;;;;;;17.20;12.20;;;;;;;9.89;68.82;98049.07;107311;1260;67651;-39
2024/03/24 01:35:05;;;;;;;17.90;12.70;;;;;;;9.84;69.10;98048.84;107174;1260;71423;-39
2024/03/24 01:37:35;;;;;;;17.20;12.50;;;;;;;9.84;69.20;98040.64;107128;1257;61360;-39
2024/03/24 01:40:04;;;;;;;18.00;12.20;;;;;;;9.85;69.32;98041.73;107169;1256;61357;-39
2024/03/24 01:42:32;;;;;;;16.20;12.40;;;;;;;9.82;69.58;98044.50;107210;1256;74712;-39
2024/03/24 01:44:59;;;;;;;17.10;12.20;;;;;;;9.79;69.84;98041.02;107201;1256;66784;-39
2024/03/24 01:47:27;;;;;;;18.20;12.60;;;;;;;9.76;70.00;98034.37;107230;1257;71898;-39
2024/03/24 01:49:54;;;;;;;18.10;12.60;;;;;;;9.73;70.24;98038.45;107077;1256;61294;-39
2024/03/24 01:52:21;;;;;;;19.70;11.90;;;;;;;9.68;70.44;98034.59;107195;1260;61139;-39
2024/03/24 01:54:49;;;;;;;17.60;11.90;;;;;;;9.70;70.53;98029.34;107256;1256;74799;-39
2024/03/24 01:57:16;;;;;;;16.20;11.60;;;;;;;9.74;70.49;98031.49;107272;1260;67597;-39
2024/03/24 01:59:43;;;;;;;16.60;11.80;;;;;;;9.72;70.62;98034.99;107243;1256;72669;-39
2024/03/24 02:02:11;;;;;;;15.40;11.90;;;;;;;9.70;70.72;98028.25;107176;1256;61074;-39
2024/03/24 02:04:48;;;;;;;15.90;11.80;;;;;;;9.67;70.81;98031.44;107261;1256;61144;-39
2024/03/24 02:07:15;;;;;;;16.20;12.50;;;;;;;9.63;70.99;98028.03;107256;1256;75228;-39
2024/03/24 02:09:42;;;;;;;15.90;11.50;;;;;;;9.59;71.15;98027.16;107204;1260;66644;-39
2024/03/24 02:12:10;;;;;;;14.80;10.90;;;;;;;9.62;71.18;98027.94;107183;1260;71342;-39
2024/03/24 02:14:38;;;;;;;16.60;12.00;;;;;;;9.64;71.23;98034.43;107224;1256;61251;-39
2024/03/24 02:17:05;;;;;;;16.10;11.60;;;;;;;9.61;71.34;98031.27;107204;1256;61111;-39
2024/03/24 02:19:33;;;;;;;15.40;12.20;;;;;;;9.57;71.49;98027.55;107209;1257;73408;-39
2024/03/24 02:22:00;;;;;;;17.90;12.50;;;;;;;9.54;71.71;98019.66;107206;1256;66423;-39
2024/03/24 02:24:27;;;;;;;16.90;12.50;;;;;;;9.51;71.85;98022.13;107110;1256;72675;-39
2024/03/24 02:26:55;;;;;;;17.40;11.80;;;;;;;9.50;71.90;98018.17;107067;1258;61790;-39
2024/03/24 02:29:22;;;;;;;17.10;11.70;;;;;;;9.56;71.91;98014.17;107095;1256;61186;-39
2024/03/24 02:31:50;;;;;;;14.90;11.40;;;;;;;9.61;71.68;98010.08;107157;1256;74642;-39
2024/03/24 02:34:17;;;;;;;16.00;12.60;;;;;;;9.60;71.66;98011.94;107148;1256;66750;-39
2024/03/24 02:36:44;;;;;;;16.50;11.90;;;;;;;9.57;71.76;98007.69;107240;1257;72674;-39
2024/03/24 02:39:12;;;;;;;16.40;11.70;;;;;;;9.55;71.77;98008.15;107192;1256;61192;-39
2024/03/24 02:41:39;;;;;;;18.30;12.70;;;;;;;9.52;71.90;97999.02;107194;1256;61225;-39
2024/03/24 02:44:06;;;;;;;18.40;12.70;;;;;;;9.49;71.86;97999.77;107182;1260;74684;-39
2024/03/24 02:46:34;;;;;;;15.40;11.20;;;;;;;9.51;71.86;97997.94;107221;1256;66575;-39
2024/03/24 02:49:01;;;;;;;15.60;11.50;;;;;;;9.58;71.71;97999.48;107136;1257;72747;-39
2024/03/24 02:51:29;;;;;;;17.50;12.30;;;;;;;9.60;71.62;98002.66;107215;1258;61222;-37
2024/03/24 02:53:57;;;;;;;16.80;10.80;;;;;;;9.63;71.62;98006.30;107258;1257;58733;-37
2024/03/24 02:56:24;;;;;;;18.30;12.40;;;;;;;9.62;71.47;98007.00;107251;1256;73337;-37
2024/03/24 02:58:51;;;;;;;17.50;11.90;;;;;;;9.60;71.51;98003.04;107227;1256;66269;-37
2024/03/24 03:01:20;;;;;;;16.60;12.10;;;;;;;9.57;71.63;98002.73;107214;1257;71409;-37
2024/03/24 03:03:47;;;;;;;15.80;11.30;;;;;;;9.56;71.57;98003.66;107255;1257;61227;-37
2024/03/24 03:06:15;;;;;;;14.70;10.70;;;;;;;9.58;71.52;97999.25;107229;1256;61186;-37
2024/03/24 03:08:43;;;;;;;15.40;10.70;;;;;;;9.62;71.35;98002.83;107246;1260;74646;-37
2024/03/24 03:11:10;;;;;;;13.80;11.20;;;;;;;9.63;71.40;98000.66;107196;1256;66737;-37
2024/03/24 03:13:37;;;;;;;14.70;11.30;;;;;;;9.61;71.51;98006.60;107189;1256;72709;-37
2024/03/24 03:16:05;;;;;;;15.20;11.80;;;;;;;9.59;71.47;98009.38;107214;1260;61240;-37
2024/03/24 03:18:33;;;;;;;14.80;12.00;;;;;;;9.55;71.51;98010.63;107234;1260;60397;-37
2024/03/24 03:21:00;;;;;;;15.30;11.80;;;;;;;9.50;71.60;98011.23;107219;1256;73375;-38
2024/03/24 03:23:27;;;;;;;17.20;11.90;;;;;;;9.37;71.73;98000.16;107217;1256;67569;-38
2024/03/24 03:25:55;;;;;;;17.30;11.60;;;;;;;9.44;71.81;98011.08;107203;1260;72476;-37
2024/03/24 03:28:22;;;;;;;16.50;11.90;;;;;;;9.47;71.71;98014.63;107194;1256;61124;-38
2024/03/24 03:30:50;;;;;;;14.80;11.70;;;;;;;9.44;71.81;98013.08;107090;1256;60496;-38
2024/03/24 03:33:18;;;;;;;17.50;12.10;;;;;;;9.39;71.97;98011.29;107140;1256;74691;-38
2024/03/24 03:35:45;;;;;;;17.40;12.80;;;;;;;9.34;72.10;98010.59;107391;1253;68021;-37
2024/03/24 03:38:12;;;;;;;15.40;12.30;;;;;;;9.29;72.25;98008.87;107525;1257;71352;-37
2024/03/24 03:40:40;;;;;;;17.50;12.40;;;;;;;9.26;72.29;98008.01;107419;1257;61340;-37
2024/03/24 03:43:08;;;;;;;16.40;11.50;;;;;;;9.29;72.21;98003.47;107402;1253;61126;-37
2024/03/24 03:45:35;;;;;;;17.60;11.40;;;;;;;9.34;72.06;98003.27;107530;1253;74681;-37
2024/03/24 03:48:04;;;;;;;15.50;11.60;;;;;;;9.33;72.05;98004.95;107482;1253;67891;-37
2024/03/24 03:50:37;;;;;;;17.70;11.90;;;;;;;9.30;72.06;98007.95;107620;1253;73058;-37
2024/03/24 03:53:06;;;;;;;18.00;12.70;;;;;;;9.23;72.31;98002.98;107503;1253;61219;-37
2024/03/24 03:55:34;;;;;;;15.60;11.60;;;;;;;9.17;72.40;98002.58;107645;1252;59988;-37
2024/03/24 03:58:04;;;;;;;18.10;12.10;;;;;;;9.12;72.46;98003.12;107526;1252;73961;-37
2024/03/24 04:00:31;;;;;;;13.60;11.30;;;;;;;9.17;72.40;98003.20;107521;1252;66425;-37
2024/03/24 04:02:59;;;;;;;17.70;11.20;;;;;;;9.21;72.18;98002.83;107476;1253;71054;-37
2024/03/24 04:05:26;;;;;;;14.30;10.80;;;;;;;9.18;72.16;98005.05;107502;1253;61232;-37
2024/03/24 04:07:54;;;;;;;16.20;11.70;;;;;;;9.14;72.32;98008.06;107491;1254;61443;-37
2024/03/24 04:10:21;;;;;;;17.30;11.90;;;;;;;9.11;72.44;98006.05;107478;1252;75050;-37
2024/03/24 04:12:49;;;;;;;15.00;11.40;;;;;;;9.09;72.46;98002.35;107495;1256;67575;-38
2024/03/24 04:15:17;;;;;;;17.50;11.90;;;;;;;9.07;72.42;98000.63;107510;1253;72758;-37
2024/03/24 04:17:45;;;;;;;15.60;11.40;;;;;;;9.08;72.46;97999.39;107531;1253;61059;-37
2024/03/24 04:20:14;;;;;;;14.10;10.70;;;;;;;9.13;72.35;98003.13;107513;1253;61036;-38
2024/03/24 04:22:43;;;;;;;14.60;11.20;;;;;;;9.11;72.33;97999.71;107492;1253;74673;-38
2024/03/24 04:25:11;;;;;;;17.90;11.90;;;;;;;9.08;72.64;97997.92;107526;1257;67594;-38
2024/03/24 04:27:38;;;;;;;17.60;15.00;;;;;;;9.06;72.64;98001.16;107468;1253;72793;-38
2024/03/24 04:30:07;;;;;;;18.30;13.30;;;;;;;9.01;72.62;97998.98;107419;1253;59969;-38
2024/03/24 04:32:35;;;;;;;28.20;24.70;;;;;;;8.96;72.74;97998.20;107523;1257;61123;-38
2024/03/24 04:35:02;;;;;;;22.90;16.40;;;;;;;8.89;72.97;97995.86;107472;1252;73844;-38
2024/03/24 04:37:30;;;;;;;16.50;13.10;;;;;;;8.87;73.03;97995.30;107500;1257;65563;-38
2024/03/24 04:39:58;;;;;;;18.20;14.10;;;;;;;8.87;73.24;97996.08;107470;1253;71569;-38
2024/03/24 04:42:25;;;;;;;20.40;15.00;;;;;;;8.84;73.36;97994.77;107495;1253;61244;-38
2024/03/24 04:44:53;;;;;;;15.60;12.70;;;;;;;8.80;73.63;97987.88;107518;1253;61190;-38
2024/03/24 04:47:22;;;;;;;72.40;60.60;;;;;;;8.77;73.81;97984.54;107533;1253;72533;-38
2024/03/24 04:49:49;;;;;;;20.40;15.30;;;;;;;8.75;74.03;97989.41;107521;1252;68084;-38
2024/03/24 04:52:18;;;;;;;17.10;12.20;;;;;;;8.71;74.10;97984.52;107510;1253;73176;-38
2024/03/24 04:54:46;;;;;;;70.30;50.90;;;;;;;8.73;74.11;97983.90;107528;1253;60901;-38
2024/03/24 04:57:16;;;;;;;48.80;40.50;;;;;;;8.79;73.99;97989.72;107514;1256;61132;-38
2024/03/24 04:59:43;;;;;;;21.50;17.70;;;;;;;8.77;74.14;97993.11;107505;1253;74670;-38
2024/03/24 05:02:13;;;;;;;24.10;19.20;;;;;;;8.75;74.09;97993.50;107536;1255;66608;-38
2024/03/24 05:04:41;;;;;;;20.60;15.30;;;;;;;8.72;74.27;97993.63;107517;1253;71469;-38
2024/03/24 05:07:08;;;;;;;19.10;14.00;;;;;;;8.70;74.44;97988.62;107507;1253;61400;-38
2024/03/24 05:09:36;;;;;;;17.60;12.90;;;;;;;8.69;74.49;97990.00;107582;1253;61276;-38
2024/03/24 05:12:04;;;;;;;18.00;13.00;;;;;;;8.74;74.44;97991.70;107510;1253;73415;-38
2024/03/24 05:14:31;;;;;;;17.70;12.40;;;;;;;8.79;74.30;97991.81;107543;1253;66325;-38
2024/03/24 05:16:59;;;;;;;17.60;12.80;;;;;;;8.76;74.28;97987.94;107494;1253;71858;-37
2024/03/24 05:19:26;;;;;;;20.70;13.40;;;;;;;8.73;74.30;97991.16;107509;1253;61350;-38
2024/03/24 05:21:54;;;;;;;18.10;13.70;;;;;;;8.69;74.36;97992.23;107416;1253;177019;-37
2024/03/24 05:26:39;;;;;;;19.10;13.80;;;;;;;8.57;74.32;97995.18;104104;1292;600465;-37
2024/03/24 05:29:06;;;;;;;16.50;13.20;;;;;;;8.51;74.38;97995.48;106590;1266;60540;-37
2024/03/24 05:31:34;;;;;;;26.50;16.50;;;;;;;8.53;74.51;97995.01;106681;1266;60070;-38
2024/03/24 05:34:01;;;;;;;21.80;15.50;;;;;;;8.51;74.55;97994.31;106652;1266;73053;-38
2024/03/24 05:36:29;;;;;;;18.80;14.70;;;;;;;8.46;74.67;97989.66;106671;1266;67659;-38
2024/03/24 05:38:57;;;;;;;22.20;14.80;;;;;;;8.42;74.68;97983.92;106650;1271;71402;-38
2024/03/24 05:41:25;;;;;;;19.40;14.10;;;;;;;8.38;74.75;97982.52;106588;1264;183813;-38
2024/03/24 05:43:52;;;;;;;20.60;14.50;;;;;;;8.32;74.87;97978.39;106679;1264;59997;-38
2024/03/24 05:46:20;;;;;;;18.90;13.50;;;;;;;8.32;74.89;97975.30;106790;1264;73053;-38
2024/03/24 05:48:47;;;;;;;16.10;13.30;;;;;;;8.37;74.82;97973.63;106745;1264;65363;-38
2024/03/24 05:51:15;;;;;;;17.70;13.10;;;;;;;8.37;74.93;97976.56;107175;1257;71427;-38
2024/03/24 05:53:42;;;;;;;20.70;15.70;;;;;;;8.35;74.98;97976.48;107235;1257;60285;-38
2024/03/24 05:56:09;;;;;;;21.50;15.40;;;;;;;8.32;75.04;97976.55;107207;1257;60527;-38
2024/03/24 05:58:37;;;;;;;22.60;16.00;;;;;;;8.32;75.11;97974.85;107232;1257;73861;-38
2024/03/24 06:01:05;;;;;;;20.90;13.90;;;;;;;8.29;74.88;97976.81;107140;1257;67634;-38
2024/03/24 06:03:32;;;;;;;18.70;13.30;;;;;;;8.33;74.88;97980.16;107155;1257;72744;-38
2024/03/24 06:06:00;;;;;;;18.70;13.40;;;;;;;8.35;74.76;97979.02;107117;1257;60202;-38
2024/03/24 06:08:28;;;;;;;19.10;15.00;;;;;;;8.31;74.92;97977.48;107196;1257;60306;-38
2024/03/24 06:10:55;;;;;;;21.30;14.70;;;;;;;8.29;75.07;97975.36;107247;1257;72560;-38
2024/03/24 06:13:22;;;;;;;26.70;20.30;;;;;;;8.28;75.05;97977.95;107241;1257;68380;-39
2024/03/24 06:15:50;;;;;;;28.60;19.70;;;;;;;8.26;74.99;97977.64;107165;1257;72733;-38
2024/03/24 06:18:17;;;;;;;115.10;65.90;;;;;;;8.29;74.89;97978.60;107212;1257;60435;-38
2024/03/24 06:20:45;;;;;;;49.10;34.50;;;;;;;8.33;74.74;97979.48;107267;1257;60144;-38
2024/03/24 06:23:12;;;;;;;59.70;40.40;;;;;;;8.30;74.73;97981.61;107213;1257;73868;-38
2024/03/24 06:25:39;;;;;;;35.60;27.80;;;;;;;8.25;74.92;97984.65;107229;1257;66613;-38
2024/03/24 06:28:07;;;;;;;45.70;32.70;;;;;;;8.19;75.24;97986.62;107094;1257;71715;-38
2024/03/24 06:30:34;;;;;;;53.90;36.20;;;;;;;8.15;75.65;97987.36;107145;1257;61694;-38
2024/03/24 06:33:02;;;;;;;38.60;26.20;;;;;;;8.14;75.93;97984.19;107236;1257;60453;-38
2024/03/24 06:35:30;;;;;;;52.90;33.90;;;;;;;8.15;76.09;97980.27;107235;1258;73842;-38
2024/03/24 06:37:57;;;;;;;55.70;38.50;;;;;;;8.14;76.21;97981.80;107210;1262;65387;-38
2024/03/24 06:40:25;;;;;;;47.50;33.90;;;;;;;8.09;76.65;97982.86;107207;1258;71403;-38
2024/03/24 06:43:06;;;;;;;30.20;23.00;;;;;;;8.05;77.06;97978.73;107200;1257;60165;-38
2024/03/24 06:45:40;;;;;;;30.50;23.10;;;;;;;8.04;77.47;97977.88;107201;1257;58765;-38
2024/03/24 06:48:08;;;;;;;34.40;26.10;;;;;;;8.08;77.24;97980.54;107218;1257;73926;-38
2024/03/24 06:50:35;;;;;;;27.00;20.20;;;;;;;8.12;77.43;97981.41;107243;1257;67914;-38
2024/03/24 06:53:03;;;;;;;23.40;18.50;;;;;;;8.13;77.64;97976.93;107225;1260;72717;-38
2024/03/24 06:55:31;;;;;;;25.50;19.50;;;;;;;8.13;77.93;97978.64;107249;1263;60074;-38
2024/03/24 06:57:58;;;;;;;24.60;19.00;;;;;;;8.13;77.83;97968.30;107224;1257;61145;-38
2024/03/24 07:00:26;;;;;;;21.40;16.60;;;;;;;8.16;77.88;97972.09;107245;1257;73859;-38
2024/03/24 07:02:53;;;;;;;24.50;17.60;;;;;;;8.20;77.53;97963.10;107246;1257;66913;-39
2024/03/24 07:05:20;;;;;;;21.70;15.80;;;;;;;8.26;77.46;97963.91;107209;1257;71767;-38
2024/03/24 07:07:49;;;;;;;21.40;16.10;;;;;;;8.28;77.65;97960.36;107224;1257;60444;-38
2024/03/24 07:10:16;;;;;;;21.60;17.70;;;;;;;8.27;77.73;97955.58;107229;1257;59579;-38
2024/03/24 07:12:44;;;;;;;26.50;19.70;;;;;;;8.24;77.81;97953.70;107233;1257;73826;-38
2024/03/24 07:15:11;;;;;;;26.80;17.90;;;;;;;8.23;78.28;97953.31;107217;1257;67640;-38
2024/03/24 07:17:39;;;;;;;21.00;15.30;;;;;;;8.27;78.14;97945.87;107253;1257;71421;-38
2024/03/24 07:20:07;;;;;;;25.00;21.50;;;;;;;8.35;78.08;97938.68;107230;1257;59407;-38
2024/03/24 07:22:34;;;;;;;22.30;16.80;;;;;;;8.38;78.07;97946.87;107332;1257;60449;-38
2024/03/24 07:25:02;;;;;;;24.00;16.40;;;;;;;8.38;78.23;97940.52;107237;1257;72606;-38
2024/03/24 07:27:29;;;;;;;22.30;16.50;;;;;;;8.37;78.39;97941.30;107230;1257;66421;-38
2024/03/24 07:29:56;;;;;;;21.60;16.40;;;;;;;8.34;78.31;97940.52;107168;1260;71463;-38
2024/03/24 07:32:24;;;;;;;22.80;16.80;;;;;;;8.36;78.45;97938.38;107151;1257;61793;-38
2024/03/24 07:34:52;;;;;;;20.40;15.90;;;;;;;8.43;78.84;97939.71;107131;1257;60658;-38
2024/03/24 07:37:20;;;;;;;21.40;16.60;;;;;;;8.48;79.26;97935.02;107201;1259;72794;-38
2024/03/24 07:39:48;;;;;;;20.40;16.40;;;;;;;8.48;79.18;97941.42;107216;1257;68847;-38
2024/03/24 07:42:15;;;;;;;21.80;16.30;;;;;;;8.41;79.41;97927.98;107181;1259;75168;-37
2024/03/24 07:44:42;;;;;;;23.30;16.00;;;;;;;8.50;79.52;97930.79;107210;1257;62037;-37
2024/03/24 07:47:10;;;;;;;23.50;15.40;;;;;;;8.57;79.37;97925.50;107187;1257;60354;-38
2024/03/24 07:49:37;;;;;;;21.70;15.80;;;;;;;8.62;79.45;97919.03;107181;1257;73970;-38
2024/03/24 07:52:09;;;;;;;20.00;15.60;;;;;;;8.62;79.25;97913.79;107172;1263;67813;-38
2024/03/24 07:54:36;;;;;;;23.10;17.60;;;;;;;8.59;79.15;97909.99;106446;1257;1002901;-39
2024/03/24 07:57:04;;;;;;;20.90;15.90;;;;;;;8.57;79.50;97904.04;107259;1257;60447;-37
2024/03/24 07:59:31;;;;;;;21.70;16.20;;;;;;;8.64;79.41;97907.15;107234;1257;60404;-37
2024/03/24 08:01:59;;;;;;;22.60;16.30;;;;;;;8.69;79.45;97897.52;107174;1257;74064;-38
2024/03/24 08:04:26;;;;;;;25.10;17.20;;;;;;;8.71;79.34;97894.45;107232;1262;68136;-38
2024/03/24 08:06:54;;;;;;;24.70;17.20;;;;;;;8.69;79.08;97889.11;107177;1257;74895;-38
2024/03/24 08:09:21;;;;;;;23.70;16.40;;;;;;;8.66;78.89;97890.34;107162;1262;60319;-38
2024/03/24 08:11:48;;;;;;;25.30;16.00;;;;;;;8.64;78.90;97878.52;107203;1258;59193;-38
2024/03/24 08:14:16;;;;;;;21.20;16.10;;;;;;;8.69;79.10;97870.66;107233;1257;72528;-38
2024/03/24 08:16:45;;;;;;;;;;;;;;;8.77;79.01;97873.76;107204;1257;70324;-38
2024/03/24 08:19:14;;;;;;;23.00;16.90;;;;;;;8.77;78.73;97875.00;107164;1260;71426;-38
2024/03/24 08:21:43;;;;;;;22.80;17.60;;;;;;;8.72;79.05;97873.27;107209;1257;62341;-38
2024/03/24 08:24:12;;;;;;;22.90;17.60;;;;;;;8.70;79.23;97869.89;107278;1257;60472;-38
2024/03/24 08:26:40;;;;;;;21.40;15.80;;;;;;;8.72;79.51;97868.59;107195;1258;72509;-38
2024/03/24 08:29:07;;;;;;;23.50;15.30;;;;;;;8.80;79.77;97865.58;107249;1257;67899;-38
2024/03/24 08:31:35;;;;;;;20.40;16.00;;;;;;;8.93;79.97;97864.05;107109;1260;73161;-38
2024/03/24 08:34:03;;;;;;;20.40;16.50;;;;;;;9.01;80.09;97870.40;107104;1260;60414;-38
2024/03/24 08:36:30;;;;;;;24.30;17.10;;;;;;;9.06;80.14;97867.94;107204;1257;60453;-38
2024/03/24 08:38:58;;;;;;;22.30;17.30;;;;;;;9.09;79.83;97862.45;107261;1257;76074;-37
2024/03/24 08:41:25;;;;;;;25.80;17.30;;;;;;;9.13;79.50;97858.74;107208;1257;67993;-37
2024/03/24 08:43:54;;;;;;;20.20;15.50;;;;;;;9.21;79.17;97858.83;107140;1259;74753;-37
2024/03/24 08:46:21;;;;;;;20.80;15.70;;;;;;;9.30;79.00;97855.50;107214;1257;60412;-37
2024/03/24 08:48:49;;;;;;;23.80;16.20;;;;;;;9.36;79.22;97855.50;107303;1261;60648;-37
2024/03/24 08:51:17;;;;;;;20.80;15.70;;;;;;;9.38;78.86;97866.88;107249;1257;73168;-38
2024/03/24 08:53:44;;;;;;;20.30;15.70;;;;;;;9.36;78.24;97878.90;107203;1261;70217;-37
2024/03/24 08:56:12;;;;;;;21.80;16.50;;;;;;;9.30;78.20;97888.50;107226;1263;73054;-37
2024/03/24 08:58:39;;;;;;;20.90;16.00;;;;;;;9.26;78.06;97898.22;107204;1257;60489;-37
2024/03/24 09:01:07;;;;;;;22.60;16.80;;;;;;;9.25;78.08;97893.35;107149;1257;61045;-37
2024/03/24 09:03:36;;;;;;;18.70;13.10;;;;;;;9.20;78.41;97890.89;107223;1257;76190;-37
2024/03/24 09:06:04;;;;;;;24.40;18.10;;;;;;;9.15;78.81;97895.74;107227;1257;67911;-37
2024/03/24 09:08:31;;;;;;;24.50;17.50;;;;;;;9.08;78.57;97896.98;107162;1261;71476;-37
2024/03/24 09:10:59;;;;;;;20.30;16.10;;;;;;;9.07;78.61;97897.98;107204;1262;61888;-37
2024/03/24 09:13:27;;;;;;;20.50;16.00;;;;;;;9.08;78.54;97899.45;107204;1258;60489;-37
2024/03/24 09:15:54;;;;;;;22.60;16.90;;;;;;;9.07;78.81;97905.70;107259;1257;73856;-37
2024/03/24 09:18:22;;;;;;;22.70;17.90;;;;;;;9.05;79.29;97900.84;107195;1257;67221;-37
2024/03/24 09:20:49;;;;;;;41.60;26.90;;;;;;;9.01;79.60;97888.77;107188;1257;71506;-37
2024/03/24 09:23:17;;;;;;;126.40;59.20;;;;;;;9.01;79.59;97888.63;107269;1257;61047;-37
2024/03/24 09:25:46;;;;;;;83.30;50.80;;;;;;;9.07;79.06;97888.55;107237;1257;60919;-37
2024/03/24 09:28:14;;;;;;;44.10;33.40;;;;;;;9.09;78.40;97884.16;107203;1261;72737;-38
2024/03/24 09:30:43;;;;;;;22.50;17.30;;;;;;;9.06;78.64;97879.66;107089;1261;67047;-38
2024/03/24 09:33:10;;;;;;;65.10;46.50;;;;;;;9.03;78.75;97882.37;107073;1258;71448;-37
2024/03/24 09:35:38;;;;;;;38.00;27.20;;;;;;;9.01;79.11;97881.83;107202;1256;61380;-38
2024/03/24 09:38:05;;;;;;;33.70;24.20;;;;;;;9.08;79.33;97878.36;107237;1257;61222;-38
2024/03/24 09:40:32;;;;;;;27.50;21.40;;;;;;;9.19;79.30;97883.70;107251;1260;74625;-38
2024/03/24 09:43:00;;;;;;;23.90;18.20;;;;;;;9.26;79.28;97886.48;107207;1257;66488;-38
2024/03/24 09:45:27;;;;;;;24.20;17.90;;;;;;;9.28;78.84;97894.14;107215;1260;74887;-38
2024/03/24 09:47:56;;;;;;;25.40;19.10;;;;;;;9.28;78.18;97890.73;107009;1257;62201;-38
2024/03/24 09:50:24;;;;;;;25.60;17.80;;;;;;;9.28;78.43;97885.70;107349;1257;61135;-37
2024/03/24 09:52:55;;;;;;;26.10;19.10;;;;;;;9.33;78.08;97886.10;107220;1257;75097;-37
2024/03/24 09:55:28;;;;;;;25.20;18.20;;;;;;;9.41;78.03;97882.16;107240;1257;68060;-38
2024/03/24 09:57:58;;;;;;;25.00;19.00;;;;;;;9.41;77.65;97885.09;107221;1263;72797;-39
2024/03/24 10:00:38;;;;;;;24.40;19.40;;;;;;;9.37;77.71;97880.54;107230;1259;61132;-38
2024/03/24 10:03:05;;;;;;;26.50;19.50;;;;;;;9.34;77.88;97873.50;107225;1258;61234;-37
2024/03/24 10:05:32;;;;;;;24.10;17.10;;;;;;;9.32;77.77;97872.03;107027;1263;74499;-37
2024/03/24 10:08:01;;;;;;;29.20;21.80;;;;;;;9.34;77.61;97874.73;107176;1263;70019;-38
2024/03/24 10:10:29;;;;;;;24.70;18.10;;;;;;;9.39;77.42;97875.74;107205;1257;71448;-38
2024/03/24 10:12:57;;;;;;;30.10;20.60;;;;;;;9.39;77.09;97875.28;107275;1258;61195;-38
2024/03/24 10:15:25;;;;;;;23.40;17.80;;;;;;;9.36;77.47;97870.95;107369;1257;60308;-38
2024/03/24 10:18:11;;;;;;;25.30;19.30;;;;;;;9.35;77.77;97874.27;107343;1257;74837;-38
2024/03/24 10:20:39;;;;;;;22.20;17.40;;;;;;;9.37;77.49;97870.57;107208;1257;67898;-39
2024/03/24 10:23:06;;;;;;;22.60;16.00;;;;;;;9.43;76.91;97875.34;107212;1261;71643;-38
2024/03/24 10:25:34;;;;;;;26.50;17.00;;;;;;;9.46;76.67;97868.79;107217;1262;61159;-38
2024/03/24 10:28:02;;;;;;;24.20;18.60;;;;;;;9.50;76.58;97873.17;107214;1257;61189;-38
2024/03/24 10:30:29;;;;;;;24.40;17.70;;;;;;;9.50;76.82;97863.52;107250;1256;73391;-37
2024/03/24 10:32:57;;;;;;;24.00;18.50;;;;;;;9.50;76.97;97861.05;107241;1258;67150;-37
2024/03/24 10:35:27;;;;;;;23.40;18.00;;;;;;;9.52;76.70;97858.35;107188;1258;74978;-37
2024/03/24 10:37:54;;;;;;;25.20;19.10;;;;;;;9.57;76.47;97859.18;107265;1259;62112;-38
2024/03/24 10:40:22;;;;;;;21.90;16.20;;;;;;;9.63;75.96;97862.66;107243;1257;60506;-38
2024/03/24 10:42:53;;;;;;;25.50;18.00;;;;;;;9.61;75.61;97864.13;107034;1257;75078;-38
2024/03/24 10:45:27;;;;;;;26.20;19.10;;;;;;;9.57;75.46;97876.81;107224;1262;67623;-38
2024/03/24 10:48:14;;;;;;;26.20;18.60;;;;;;;9.54;75.40;97877.35;107182;1257;72812;-38
2024/03/24 10:50:41;;;;;;;28.10;20.00;;;;;;;9.49;75.49;97885.55;106995;1257;61310;-38
2024/03/24 10:53:13;;;;;;;32.10;20.70;;;;;;;9.45;75.56;97885.09;107183;1258;61073;-38
2024/03/24 10:55:44;;;;;;;29.70;21.00;;;;;;;9.44;75.34;97874.97;107243;1259;75176;-38
2024/03/24 10:58:13;;;;;;;40.60;26.60;;;;;;;9.50;75.37;97877.04;107038;1257;70296;-39
2024/03/24 11:00:45;;;;;;;32.10;21.80;;;;;;;9.48;75.41;97871.02;107273;1263;74923;-39
2024/03/24 11:03:16;;;;;;;26.20;18.20;;;;;;;9.48;75.67;97872.35;107146;1257;61201;-38
2024/03/24 11:05:45;;;;;;;24.80;18.30;;;;;;;9.48;75.74;97880.31;107341;1257;61221;-38
2024/03/24 11:08:13;;;;;;;26.60;16.00;;;;;;;9.47;76.11;97887.26;107248;1257;76875;-37
2024/03/24 11:10:46;;;;;;;20.40;15.40;;;;;;;9.54;76.43;97891.11;107292;1257;68053;-38
2024/03/24 11:13:18;;;;;;;32.00;23.30;;;;;;;9.62;76.21;97887.48;107275;1258;71186;-38
2024/03/24 11:15:48;;;;;;;73.80;50.70;;;;;;;9.63;76.06;97882.98;107074;1263;61212;-38
2024/03/24 11:18:20;;;;;;;64.30;47.70;;;;;;;9.63;76.00;97881.05;107224;1257;59320;-38
2024/03/24 11:21:01;;;;;;;37.70;27.80;;;;;;;9.61;76.23;97877.11;107242;1257;74821;-38
2024/03/24 11:23:40;;;;;;;23.80;19.30;;;;;;;9.64;76.45;97879.05;107243;1257;69150;-38